sensor_id;sensor_type;location;lat;lon;timestamp;P1;durP1;ratioP1;P2;durP2;ratioP2
21018;SDS011;10667;51.056;3.732;2022-10-31T00:01:10;5.55;;;3.33;;
21018;SDS011;10667;51.056;3.732;2022-10-31T00:03:39;5.47;;;3.40;;
21018;SDS011;10667;51.056;3.732;2022-10-31T00:06:04;5.00;;;3.20;;
21018;SDS011;10667;51.056;3.732;2022-10-31T00:08:30;6.15;;;3.25;;
21018;SDS011;10667;51.056;3.732;2022-10-31T00:10:56;3.85;;;2.92;;
21018;SDS011;10667;51.056;3.732;2022-10-31T00:13:21;4.65;;;3.45;;
21018;SDS011;10667;51.056;3.732;2022-10-31T00:15:47;4.60;;;3.25;;
21018;SDS011;10667;51.056;3.732;2022-10-31T00:18:13;5.32;;;3.50;;
21018;SDS011;10667;51.056;3.732;2022-10-31T00:20:38;5.30;;;3.20;;
21018;SDS011;10667;51.056;3.732;2022-10-31T00:23:04;4.15;;;3.20;;
21018;SDS011;10667;51.056;3.732;2022-10-31T00:25:35;5.97;;;3.03;;
21018;SDS011;10667;51.056;3.732;2022-10-31T00:28:02;4.32;;;3.08;;
21018;SDS011;10667;51.056;3.732;2022-10-31T00:30:29;4.30;;;3.13;;
21018;SDS011;10667;51.056;3.732;2022-10-31T00:32:54;5.05;;;3.00;;
21018;SDS011;10667;51.056;3.732;2022-10-31T00:35:20;5.90;;;3.70;;
21018;SDS011;10667;51.056;3.732;2022-10-31T00:37:46;3.75;;;2.88;;
21018;SDS011;10667;51.056;3.732;2022-10-31T00:40:11;4.55;;;3.40;;
21018;SDS011;10667;51.056;3.732;2022-10-31T00:42:38;5.50;;;3.13;;
21018;SDS011;10667;51.056;3.732;2022-10-31T00:45:06;3.38;;;2.83;;
21018;SDS011;10667;51.056;3.732;2022-10-31T00:47:33;4.40;;;3.13;;
21018;SDS011;10667;51.056;3.732;2022-10-31T00:49:58;3.78;;;2.95;;
21018;SDS011;10667;51.056;3.732;2022-10-31T00:52:24;5.10;;;3.42;;
21018;SDS011;10667;51.056;3.732;2022-10-31T00:54:50;3.80;;;2.67;;
21018;SDS011;10667;51.056;3.732;2022-10-31T00:57:15;3.80;;;3.05;;
21018;SDS011;10667;51.056;3.732;2022-10-31T00:59:41;6.47;;;3.35;;
21018;SDS011;10667;51.056;3.732;2022-10-31T01:02:07;5.30;;;3.35;;
21018;SDS011;10667;51.056;3.732;2022-10-31T01:04:32;3.70;;;3.17;;
21018;SDS011;10667;51.056;3.732;2022-10-31T01:06:58;4.78;;;2.92;;
21018;SDS011;10667;51.056;3.732;2022-10-31T01:09:23;4.93;;;3.40;;
21018;SDS011;10667;51.056;3.732;2022-10-31T01:11:49;6.03;;;3.28;;
21018;SDS011;10667;51.056;3.732;2022-10-31T01:14:15;4.65;;;3.30;;
21018;SDS011;10667;51.056;3.732;2022-10-31T01:16:40;3.53;;;3.22;;
21018;SDS011;10667;51.056;3.732;2022-10-31T01:19:06;3.75;;;2.95;;
21018;SDS011;10667;51.056;3.732;2022-10-31T01:21:32;4.05;;;3.05;;
21018;SDS011;10667;51.056;3.732;2022-10-31T01:23:58;6.90;;;3.05;;
21018;SDS011;10667;51.056;3.732;2022-10-31T01:26:25;4.70;;;3.00;;
21018;SDS011;10667;51.056;3.732;2022-10-31T01:28:53;6.75;;;3.08;;
21018;SDS011;10667;51.056;3.732;2022-10-31T01:31:21;5.43;;;3.15;;
21018;SDS011;10667;51.056;3.732;2022-10-31T01:33:48;3.80;;;2.55;;
21018;SDS011;10667;51.056;3.732;2022-10-31T01:38:48;6.20;;;3.38;;
21018;SDS011;10667;51.056;3.732;2022-10-31T01:41:17;3.97;;;3.08;;
21018;SDS011;10667;51.056;3.732;2022-10-31T01:43:48;6.35;;;3.33;;
21018;SDS011;10667;51.056;3.732;2022-10-31T01:46:17;3.53;;;3.10;;
21018;SDS011;10667;51.056;3.732;2022-10-31T01:48:47;4.45;;;3.15;;
21018;SDS011;10667;51.056;3.732;2022-10-31T01:51:13;4.78;;;2.80;;
21018;SDS011;10667;51.056;3.732;2022-10-31T01:53:41;4.78;;;3.03;;
21018;SDS011;10667;51.056;3.732;2022-10-31T01:56:09;4.88;;;3.60;;
21018;SDS011;10667;51.056;3.732;2022-10-31T01:58:35;5.85;;;3.20;;
21018;SDS011;10667;51.056;3.732;2022-10-31T02:01:01;4.70;;;2.85;;
21018;SDS011;10667;51.056;3.732;2022-10-31T02:03:28;4.97;;;2.90;;
21018;SDS011;10667;51.056;3.732;2022-10-31T02:05:55;3.90;;;3.08;;
21018;SDS011;10667;51.056;3.732;2022-10-31T02:08:29;5.00;;;3.30;;
21018;SDS011;10667;51.056;3.732;2022-10-31T02:10:56;4.07;;;3.00;;
21018;SDS011;10667;51.056;3.732;2022-10-31T02:13:23;5.05;;;3.45;;
21018;SDS011;10667;51.056;3.732;2022-10-31T02:15:51;4.38;;;2.90;;
21018;SDS011;10667;51.056;3.732;2022-10-31T02:18:18;4.25;;;2.97;;
21018;SDS011;10667;51.056;3.732;2022-10-31T02:35:09;4.20;;;3.42;;
21018;SDS011;10667;51.056;3.732;2022-10-31T02:40:09;5.45;;;3.35;;
21018;SDS011;10667;51.056;3.732;2022-10-31T02:43:18;4.32;;;3.22;;
21018;SDS011;10667;51.056;3.732;2022-10-31T02:48:44;4.97;;;2.53;;
21018;SDS011;10667;51.056;3.732;2022-10-31T02:51:12;4.63;;;3.05;;
21018;SDS011;10667;51.056;3.732;2022-10-31T02:53:39;6.18;;;3.13;;
21018;SDS011;10667;51.056;3.732;2022-10-31T02:58:38;3.80;;;3.17;;
21018;SDS011;10667;51.056;3.732;2022-10-31T03:01:22;3.30;;;2.58;;
21018;SDS011;10667;51.056;3.732;2022-10-31T03:06:45;4.65;;;2.97;;
21018;SDS011;10667;51.056;3.732;2022-10-31T03:09:24;4.30;;;2.97;;
21018;SDS011;10667;51.056;3.732;2022-10-31T03:11:58;3.67;;;3.13;;
21018;SDS011;10667;51.056;3.732;2022-10-31T03:17:09;4.53;;;3.22;;
21018;SDS011;10667;51.056;3.732;2022-10-31T03:19:46;7.18;;;3.17;;
21018;SDS011;10667;51.056;3.732;2022-10-31T03:22:15;4.13;;;2.85;;
21018;SDS011;10667;51.056;3.732;2022-10-31T03:24:44;4.93;;;3.10;;
21018;SDS011;10667;51.056;3.732;2022-10-31T03:27:14;4.28;;;3.00;;
21018;SDS011;10667;51.056;3.732;2022-10-31T03:29:43;4.55;;;2.80;;
21018;SDS011;10667;51.056;3.732;2022-10-31T03:32:15;4.30;;;3.00;;
21018;SDS011;10667;51.056;3.732;2022-10-31T03:34:59;3.63;;;3.20;;
21018;SDS011;10667;51.056;3.732;2022-10-31T03:37:27;5.45;;;2.50;;
21018;SDS011;10667;51.056;3.732;2022-10-31T03:39:55;4.88;;;3.13;;
21018;SDS011;10667;51.056;3.732;2022-10-31T03:42:24;3.70;;;2.72;;
21018;SDS011;10667;51.056;3.732;2022-10-31T03:45:08;4.65;;;3.30;;
21018;SDS011;10667;51.056;3.732;2022-10-31T03:47:39;5.20;;;2.90;;
21018;SDS011;10667;51.056;3.732;2022-10-31T03:50:07;4.13;;;2.95;;
21018;SDS011;10667;51.056;3.732;2022-10-31T03:55:24;6.00;;;3.35;;
21018;SDS011;10667;51.056;3.732;2022-10-31T03:58:03;4.90;;;3.30;;
21018;SDS011;10667;51.056;3.732;2022-10-31T04:00:33;5.00;;;3.15;;
21018;SDS011;10667;51.056;3.732;2022-10-31T04:03:03;5.57;;;3.00;;
21018;SDS011;10667;51.056;3.732;2022-10-31T04:05:39;4.75;;;3.10;;
21018;SDS011;10667;51.056;3.732;2022-10-31T04:08:08;3.80;;;3.03;;
21018;SDS011;10667;51.056;3.732;2022-10-31T04:10:37;5.47;;;3.38;;
21018;SDS011;10667;51.056;3.732;2022-10-31T04:13:07;5.82;;;3.80;;
21018;SDS011;10667;51.056;3.732;2022-10-31T04:15:37;5.00;;;3.85;;
21018;SDS011;10667;51.056;3.732;2022-10-31T04:18:06;4.25;;;3.28;;
21018;SDS011;10667;51.056;3.732;2022-10-31T04:20:33;5.88;;;4.20;;
21018;SDS011;10667;51.056;3.732;2022-10-31T04:23:03;4.07;;;3.30;;
21018;SDS011;10667;51.056;3.732;2022-10-31T04:25:33;6.10;;;3.40;;
21018;SDS011;10667;51.056;3.732;2022-10-31T04:27:58;4.95;;;3.42;;
21018;SDS011;10667;51.056;3.732;2022-10-31T04:30:24;6.35;;;3.80;;
21018;SDS011;10667;51.056;3.732;2022-10-31T04:32:50;5.18;;;4.07;;
21018;SDS011;10667;51.056;3.732;2022-10-31T04:35:15;4.65;;;3.33;;
21018;SDS011;10667;51.056;3.732;2022-10-31T04:37:41;5.40;;;3.50;;
21018;SDS011;10667;51.056;3.732;2022-10-31T04:40:07;3.88;;;3.15;;
21018;SDS011;10667;51.056;3.732;2022-10-31T04:42:33;4.22;;;3.33;;
21018;SDS011;10667;51.056;3.732;2022-10-31T04:44:58;5.63;;;3.80;;
21018;SDS011;10667;51.056;3.732;2022-10-31T04:47:24;6.30;;;3.47;;
21018;SDS011;10667;51.056;3.732;2022-10-31T04:49:50;6.93;;;3.70;;
21018;SDS011;10667;51.056;3.732;2022-10-31T04:52:15;5.50;;;3.70;;
21018;SDS011;10667;51.056;3.732;2022-10-31T04:54:41;5.85;;;3.63;;
21018;SDS011;10667;51.056;3.732;2022-10-31T04:57:07;6.35;;;4.15;;
21018;SDS011;10667;51.056;3.732;2022-10-31T04:59:32;4.47;;;3.70;;
21018;SDS011;10667;51.056;3.732;2022-10-31T05:01:58;7.72;;;3.72;;
21018;SDS011;10667;51.056;3.732;2022-10-31T05:04:23;6.05;;;3.50;;
21018;SDS011;10667;51.056;3.732;2022-10-31T05:06:49;7.13;;;4.07;;
21018;SDS011;10667;51.056;3.732;2022-10-31T05:09:15;9.18;;;3.90;;
21018;SDS011;10667;51.056;3.732;2022-10-31T05:11:40;6.80;;;3.75;;
21018;SDS011;10667;51.056;3.732;2022-10-31T05:14:06;6.15;;;3.95;;
21018;SDS011;10667;51.056;3.732;2022-10-31T05:16:32;5.13;;;3.92;;
21018;SDS011;10667;51.056;3.732;2022-10-31T05:18:57;8.15;;;3.97;;
21018;SDS011;10667;51.056;3.732;2022-10-31T05:21:23;4.88;;;3.60;;
21018;SDS011;10667;51.056;3.732;2022-10-31T05:23:49;5.05;;;3.40;;
21018;SDS011;10667;51.056;3.732;2022-10-31T05:26:16;7.50;;;4.10;;
21018;SDS011;10667;51.056;3.732;2022-10-31T05:28:41;5.63;;;3.88;;
21018;SDS011;10667;51.056;3.732;2022-10-31T05:31:07;6.90;;;3.70;;
21018;SDS011;10667;51.056;3.732;2022-10-31T05:33:33;6.60;;;3.55;;
21018;SDS011;10667;51.056;3.732;2022-10-31T05:35:59;5.18;;;3.70;;
21018;SDS011;10667;51.056;3.732;2022-10-31T05:38:24;5.90;;;3.60;;
21018;SDS011;10667;51.056;3.732;2022-10-31T05:40:50;4.80;;;3.30;;
21018;SDS011;10667;51.056;3.732;2022-10-31T05:43:22;5.10;;;3.78;;
21018;SDS011;10667;51.056;3.732;2022-10-31T05:45:51;6.78;;;3.78;;
21018;SDS011;10667;51.056;3.732;2022-10-31T05:48:18;4.63;;;3.38;;
21018;SDS011;10667;51.056;3.732;2022-10-31T05:50:43;6.80;;;3.88;;
21018;SDS011;10667;51.056;3.732;2022-10-31T05:53:09;5.50;;;3.63;;
21018;SDS011;10667;51.056;3.732;2022-10-31T05:55:35;5.07;;;3.50;;
21018;SDS011;10667;51.056;3.732;2022-10-31T05:58:00;6.40;;;4.00;;
21018;SDS011;10667;51.056;3.732;2022-10-31T06:00:26;5.25;;;3.33;;
21018;SDS011;10667;51.056;3.732;2022-10-31T06:03:02;5.88;;;3.65;;
21018;SDS011;10667;51.056;3.732;2022-10-31T06:05:30;6.43;;;3.72;;
21018;SDS011;10667;51.056;3.732;2022-10-31T06:07:56;4.22;;;3.35;;
21018;SDS011;10667;51.056;3.732;2022-10-31T06:10:22;4.68;;;3.20;;
21018;SDS011;10667;51.056;3.732;2022-10-31T06:12:49;5.88;;;3.13;;
21018;SDS011;10667;51.056;3.732;2022-10-31T06:15:14;4.97;;;3.17;;
21018;SDS011;10667;51.056;3.732;2022-10-31T06:17:41;6.03;;;3.80;;
21018;SDS011;10667;51.056;3.732;2022-10-31T06:20:07;6.30;;;3.67;;
21018;SDS011;10667;51.056;3.732;2022-10-31T06:22:34;4.05;;;3.60;;
21018;SDS011;10667;51.056;3.732;2022-10-31T06:24:59;4.40;;;3.63;;
21018;SDS011;10667;51.056;3.732;2022-10-31T06:27:25;5.13;;;3.50;;
21018;SDS011;10667;51.056;3.732;2022-10-31T06:29:51;7.95;;;3.90;;
21018;SDS011;10667;51.056;3.732;2022-10-31T06:32:17;6.35;;;3.70;;
21018;SDS011;10667;51.056;3.732;2022-10-31T06:34:42;5.13;;;3.60;;
21018;SDS011;10667;51.056;3.732;2022-10-31T06:37:09;5.18;;;3.47;;
21018;SDS011;10667;51.056;3.732;2022-10-31T06:39:36;8.82;;;4.05;;
21018;SDS011;10667;51.056;3.732;2022-10-31T06:42:02;8.93;;;4.35;;
21018;SDS011;10667;51.056;3.732;2022-10-31T06:44:28;6.45;;;3.58;;
21018;SDS011;10667;51.056;3.732;2022-10-31T06:46:54;5.88;;;4.20;;
21018;SDS011;10667;51.056;3.732;2022-10-31T06:49:20;11.43;;;4.53;;
21018;SDS011;10667;51.056;3.732;2022-10-31T06:51:49;15.70;;;5.13;;
21018;SDS011;10667;51.056;3.732;2022-10-31T06:54:15;8.80;;;4.40;;
21018;SDS011;10667;51.056;3.732;2022-10-31T06:56:41;10.85;;;4.47;;
21018;SDS011;10667;51.056;3.732;2022-10-31T06:59:07;13.95;;;4.20;;
21018;SDS011;10667;51.056;3.732;2022-10-31T07:01:33;7.45;;;3.50;;
21018;SDS011;10667;51.056;3.732;2022-10-31T07:03:58;5.90;;;3.47;;
21018;SDS011;10667;51.056;3.732;2022-10-31T07:06:24;11.68;;;3.50;;
21018;SDS011;10667;51.056;3.732;2022-10-31T07:08:50;14.15;;;3.75;;
21018;SDS011;10667;51.056;3.732;2022-10-31T07:11:16;4.53;;;3.45;;
21018;SDS011;10667;51.056;3.732;2022-10-31T07:13:41;6.95;;;2.97;;
21018;SDS011;10667;51.056;3.732;2022-10-31T07:16:07;9.93;;;3.58;;
21018;SDS011;10667;51.056;3.732;2022-10-31T07:18:35;4.32;;;3.03;;
21018;SDS011;10667;51.056;3.732;2022-10-31T07:21:01;7.80;;;3.35;;
21018;SDS011;10667;51.056;3.732;2022-10-31T07:23:27;8.00;;;3.45;;
21018;SDS011;10667;51.056;3.732;2022-10-31T07:25:56;8.68;;;3.08;;
21018;SDS011;10667;51.056;3.732;2022-10-31T07:28:23;6.65;;;3.00;;
21018;SDS011;10667;51.056;3.732;2022-10-31T07:30:50;6.50;;;3.45;;
21018;SDS011;10667;51.056;3.732;2022-10-31T07:33:17;9.45;;;3.47;;
21018;SDS011;10667;51.056;3.732;2022-10-31T07:35:43;5.78;;;3.50;;
21018;SDS011;10667;51.056;3.732;2022-10-31T07:38:09;10.20;;;3.75;;
21018;SDS011;10667;51.056;3.732;2022-10-31T07:40:36;7.93;;;3.88;;
21018;SDS011;10667;51.056;3.732;2022-10-31T07:43:02;6.55;;;4.20;;
21018;SDS011;10667;51.056;3.732;2022-10-31T07:45:28;9.60;;;4.03;;
21018;SDS011;10667;51.056;3.732;2022-10-31T07:47:54;9.02;;;3.90;;
21018;SDS011;10667;51.056;3.732;2022-10-31T07:50:23;7.35;;;4.38;;
21018;SDS011;10667;51.056;3.732;2022-10-31T07:53:06;9.57;;;4.15;;
21018;SDS011;10667;51.056;3.732;2022-10-31T07:55:34;6.85;;;3.60;;
21018;SDS011;10667;51.056;3.732;2022-10-31T07:58:02;7.65;;;3.83;;
21018;SDS011;10667;51.056;3.732;2022-10-31T08:00:33;5.88;;;3.35;;
21018;SDS011;10667;51.056;3.732;2022-10-31T08:03:00;5.65;;;3.45;;
21018;SDS011;10667;51.056;3.732;2022-10-31T08:05:27;7.10;;;4.20;;
21018;SDS011;10667;51.056;3.732;2022-10-31T08:07:54;12.23;;;4.40;;
21018;SDS011;10667;51.056;3.732;2022-10-31T08:10:20;6.82;;;4.50;;
21018;SDS011;10667;51.056;3.732;2022-10-31T08:12:46;6.05;;;4.35;;
21018;SDS011;10667;51.056;3.732;2022-10-31T08:15:12;12.00;;;4.20;;
21018;SDS011;10667;51.056;3.732;2022-10-31T08:17:38;4.82;;;3.92;;
21018;SDS011;10667;51.056;3.732;2022-10-31T08:20:04;13.80;;;4.60;;
21018;SDS011;10667;51.056;3.732;2022-10-31T08:22:30;18.20;;;9.43;;
21018;SDS011;10667;51.056;3.732;2022-10-31T08:24:56;13.55;;;8.23;;
21018;SDS011;10667;51.056;3.732;2022-10-31T08:27:22;15.82;;;8.88;;
21018;SDS011;10667;51.056;3.732;2022-10-31T08:29:48;11.45;;;8.15;;
21018;SDS011;10667;51.056;3.732;2022-10-31T08:32:13;21.60;;;13.70;;
21018;SDS011;10667;51.056;3.732;2022-10-31T08:34:39;13.40;;;9.88;;
21018;SDS011;10667;51.056;3.732;2022-10-31T08:37:05;14.88;;;9.70;;
21018;SDS011;10667;51.056;3.732;2022-10-31T08:39:30;14.52;;;9.73;;
21018;SDS011;10667;51.056;3.732;2022-10-31T08:41:56;16.02;;;10.13;;
21018;SDS011;10667;51.056;3.732;2022-10-31T08:44:22;14.80;;;9.80;;
21018;SDS011;10667;51.056;3.732;2022-10-31T08:46:47;17.10;;;11.27;;
21018;SDS011;10667;51.056;3.732;2022-10-31T08:49:13;14.85;;;10.18;;
21018;SDS011;10667;51.056;3.732;2022-10-31T08:51:38;16.55;;;11.10;;
21018;SDS011;10667;51.056;3.732;2022-10-31T08:54:04;24.58;;;11.38;;
21018;SDS011;10667;51.056;3.732;2022-10-31T08:56:30;16.85;;;11.20;;
21018;SDS011;10667;51.056;3.732;2022-10-31T08:58:56;22.38;;;11.55;;
21018;SDS011;10667;51.056;3.732;2022-10-31T09:01:21;19.35;;;11.30;;
21018;SDS011;10667;51.056;3.732;2022-10-31T09:03:47;17.65;;;10.55;;
21018;SDS011;10667;51.056;3.732;2022-10-31T09:06:13;18.30;;;11.48;;
21018;SDS011;10667;51.056;3.732;2022-10-31T09:08:38;22.00;;;11.35;;
21018;SDS011;10667;51.056;3.732;2022-10-31T09:11:04;16.48;;;11.00;;
21018;SDS011;10667;51.056;3.732;2022-10-31T09:13:31;19.27;;;10.77;;
21018;SDS011;10667;51.056;3.732;2022-10-31T09:15:57;16.38;;;9.85;;
21018;SDS011;10667;51.056;3.732;2022-10-31T09:18:26;16.58;;;11.15;;
21018;SDS011;10667;51.056;3.732;2022-10-31T09:20:53;14.48;;;10.55;;
21018;SDS011;10667;51.056;3.732;2022-10-31T09:23:19;18.10;;;11.25;;
21018;SDS011;10667;51.056;3.732;2022-10-31T09:25:47;15.80;;;11.13;;
21018;SDS011;10667;51.056;3.732;2022-10-31T09:28:16;13.93;;;10.43;;
21018;SDS011;10667;51.056;3.732;2022-10-31T09:30:45;16.00;;;10.85;;
21018;SDS011;10667;51.056;3.732;2022-10-31T09:33:12;16.67;;;11.15;;
21018;SDS011;10667;51.056;3.732;2022-10-31T09:35:38;16.83;;;10.75;;
21018;SDS011;10667;51.056;3.732;2022-10-31T09:38:06;20.13;;;11.73;;
21018;SDS011;10667;51.056;3.732;2022-10-31T09:40:40;18.00;;;11.77;;
21018;SDS011;10667;51.056;3.732;2022-10-31T09:46:32;21.55;;;13.02;;
21018;SDS011;10667;51.056;3.732;2022-10-31T09:52:26;18.38;;;12.05;;
21018;SDS011;10667;51.056;3.732;2022-10-31T09:57:45;19.80;;;12.52;;
21018;SDS011;10667;51.056;3.732;2022-10-31T10:00:19;20.35;;;12.77;;
21018;SDS011;10667;51.056;3.732;2022-10-31T10:02:56;16.20;;;11.57;;
21018;SDS011;10667;51.056;3.732;2022-10-31T10:05:43;20.92;;;12.50;;
21018;SDS011;10667;51.056;3.732;2022-10-31T10:08:18;21.00;;;13.13;;
21018;SDS011;10667;51.056;3.732;2022-10-31T10:10:53;20.10;;;13.27;;
21018;SDS011;10667;51.056;3.732;2022-10-31T10:19:17;23.88;;;13.20;;
21018;SDS011;10667;51.056;3.732;2022-10-31T10:22:06;23.05;;;14.32;;
21018;SDS011;10667;51.056;3.732;2022-10-31T10:27:23;31.67;;;13.75;;
21018;SDS011;10667;51.056;3.732;2022-10-31T10:30:15;22.33;;;12.38;;
21018;SDS011;10667;51.056;3.732;2022-10-31T10:32:52;17.88;;;12.75;;
21018;SDS011;10667;51.056;3.732;2022-10-31T10:40:40;24.05;;;13.98;;
21018;SDS011;10667;51.056;3.732;2022-10-31T10:59:25;20.20;;;11.75;;
21018;SDS011;10667;51.056;3.732;2022-10-31T11:01:52;21.27;;;12.85;;
21018;SDS011;10667;51.056;3.732;2022-10-31T11:04:39;21.08;;;11.95;;
21018;SDS011;10667;51.056;3.732;2022-10-31T11:09:37;24.23;;;14.45;;
21018;SDS011;10667;51.056;3.732;2022-10-31T11:12:09;28.95;;;13.25;;
21018;SDS011;10667;51.056;3.732;2022-10-31T11:14:56;20.27;;;12.60;;
21018;SDS011;10667;51.056;3.732;2022-10-31T11:17:38;20.58;;;12.95;;
21018;SDS011;10667;51.056;3.732;2022-10-31T11:20:16;22.67;;;14.05;;
21018;SDS011;10667;51.056;3.732;2022-10-31T11:22:55;21.67;;;12.52;;
21018;SDS011;10667;51.056;3.732;2022-10-31T11:25:51;23.98;;;14.00;;
21018;SDS011;10667;51.056;3.732;2022-10-31T11:28:21;21.38;;;12.27;;
21018;SDS011;10667;51.056;3.732;2022-10-31T11:30:48;20.33;;;12.68;;
21018;SDS011;10667;51.056;3.732;2022-10-31T11:33:24;23.48;;;12.57;;
21018;SDS011;10667;51.056;3.732;2022-10-31T11:36:09;20.60;;;12.45;;
21018;SDS011;10667;51.056;3.732;2022-10-31T11:38:47;21.52;;;12.27;;
21018;SDS011;10667;51.056;3.732;2022-10-31T11:41:15;20.70;;;11.98;;
21018;SDS011;10667;51.056;3.732;2022-10-31T11:44:22;27.48;;;11.85;;
21018;SDS011;10667;51.056;3.732;2022-10-31T11:46:54;18.50;;;10.93;;
21018;SDS011;10667;51.056;3.732;2022-10-31T11:49:32;21.25;;;12.07;;
21018;SDS011;10667;51.056;3.732;2022-10-31T11:52:01;21.67;;;12.35;;
21018;SDS011;10667;51.056;3.732;2022-10-31T11:54:36;22.15;;;13.05;;
21018;SDS011;10667;51.056;3.732;2022-10-31T11:59:53;18.45;;;11.32;;
21018;SDS011;10667;51.056;3.732;2022-10-31T12:02:21;21.10;;;12.93;;
21018;SDS011;10667;51.056;3.732;2022-10-31T12:04:49;16.40;;;11.90;;
21018;SDS011;10667;51.056;3.732;2022-10-31T12:07:26;19.60;;;12.15;;
21018;SDS011;10667;51.056;3.732;2022-10-31T12:09:52;19.20;;;11.63;;
21018;SDS011;10667;51.056;3.732;2022-10-31T12:25:57;20.83;;;12.00;;
21018;SDS011;10667;51.056;3.732;2022-10-31T12:43:18;18.05;;;12.18;;
21018;SDS011;10667;51.056;3.732;2022-10-31T12:48:22;26.75;;;15.38;;
21018;SDS011;10667;51.056;3.732;2022-10-31T12:59:21;20.38;;;13.05;;
21018;SDS011;10667;51.056;3.732;2022-10-31T13:05:10;30.15;;;17.33;;
21018;SDS011;10667;51.056;3.732;2022-10-31T13:10:43;20.08;;;13.32;;
21018;SDS011;10667;51.056;3.732;2022-10-31T13:13:33;26.88;;;15.85;;
21018;SDS011;10667;51.056;3.732;2022-10-31T13:21:44;25.33;;;15.38;;
21018;SDS011;10667;51.056;3.732;2022-10-31T13:24:14;28.02;;;15.10;;
21018;SDS011;10667;51.056;3.732;2022-10-31T13:26:48;28.63;;;14.70;;
21018;SDS011;10667;51.056;3.732;2022-10-31T13:29:28;26.20;;;14.13;;
21018;SDS011;10667;51.056;3.732;2022-10-31T13:32:04;23.25;;;14.57;;
21018;SDS011;10667;51.056;3.732;2022-10-31T13:34:37;19.00;;;14.00;;
21018;SDS011;10667;51.056;3.732;2022-10-31T13:45:31;19.73;;;13.57;;
21018;SDS011;10667;51.056;3.732;2022-10-31T13:47:57;32.60;;;14.77;;
21018;SDS011;10667;51.056;3.732;2022-10-31T13:50:39;29.90;;;14.40;;
21018;SDS011;10667;51.056;3.732;2022-10-31T13:53:12;24.70;;;14.57;;
21018;SDS011;10667;51.056;3.732;2022-10-31T13:55:42;22.10;;;14.65;;
21018;SDS011;10667;51.056;3.732;2022-10-31T13:58:21;23.42;;;15.20;;
21018;SDS011;10667;51.056;3.732;2022-10-31T14:03:37;27.77;;;14.15;;
21018;SDS011;10667;51.056;3.732;2022-10-31T14:06:05;24.58;;;14.05;;
21018;SDS011;10667;51.056;3.732;2022-10-31T14:08:34;54.90;;;35.85;;
21018;SDS011;10667;51.056;3.732;2022-10-31T14:11:01;21.98;;;13.23;;
21018;SDS011;10667;51.056;3.732;2022-10-31T14:13:38;22.95;;;12.93;;
21018;SDS011;10667;51.056;3.732;2022-10-31T14:16:23;25.15;;;14.35;;
21018;SDS011;10667;51.056;3.732;2022-10-31T14:19:06;22.48;;;13.68;;
21018;SDS011;10667;51.056;3.732;2022-10-31T14:21:38;28.13;;;13.90;;
21018;SDS011;10667;51.056;3.732;2022-10-31T14:29:43;23.42;;;14.45;;
21018;SDS011;10667;51.056;3.732;2022-10-31T14:34:41;23.13;;;15.00;;
21018;SDS011;10667;51.056;3.732;2022-10-31T14:45:45;29.48;;;17.30;;
21018;SDS011;10667;51.056;3.732;2022-10-31T14:51:26;28.20;;;17.15;;
21018;SDS011;10667;51.056;3.732;2022-10-31T14:54:05;34.35;;;17.63;;
21018;SDS011;10667;51.056;3.732;2022-10-31T14:56:33;32.72;;;18.05;;
21018;SDS011;10667;51.056;3.732;2022-10-31T14:59:08;29.98;;;16.48;;
21018;SDS011;10667;51.056;3.732;2022-10-31T15:01:38;25.33;;;15.55;;
21018;SDS011;10667;51.056;3.732;2022-10-31T15:04:15;30.95;;;16.55;;
21018;SDS011;10667;51.056;3.732;2022-10-31T15:06:44;33.97;;;16.92;;
21018;SDS011;10667;51.056;3.732;2022-10-31T15:09:23;23.85;;;15.35;;
21018;SDS011;10667;51.056;3.732;2022-10-31T15:11:50;27.23;;;16.92;;
21018;SDS011;10667;51.056;3.732;2022-10-31T15:14:23;32.25;;;18.52;;
21018;SDS011;10667;51.056;3.732;2022-10-31T15:16:53;38.38;;;18.52;;
21018;SDS011;10667;51.056;3.732;2022-10-31T15:19:30;27.10;;;16.15;;
21018;SDS011;10667;51.056;3.732;2022-10-31T15:21:57;34.83;;;16.75;;
21018;SDS011;10667;51.056;3.732;2022-10-31T15:24:27;29.95;;;17.50;;
21018;SDS011;10667;51.056;3.732;2022-10-31T15:26:58;33.13;;;17.70;;
21018;SDS011;10667;51.056;3.732;2022-10-31T15:29:25;28.30;;;17.13;;
21018;SDS011;10667;51.056;3.732;2022-10-31T15:31:53;27.58;;;15.52;;
21018;SDS011;10667;51.056;3.732;2022-10-31T15:34:21;31.85;;;16.98;;
21018;SDS011;10667;51.056;3.732;2022-10-31T15:37:04;25.83;;;16.92;;
21018;SDS011;10667;51.056;3.732;2022-10-31T15:39:34;26.20;;;17.05;;
21018;SDS011;10667;51.056;3.732;2022-10-31T15:42:00;29.40;;;16.90;;
21018;SDS011;10667;51.056;3.732;2022-10-31T15:44:28;33.33;;;16.92;;
21018;SDS011;10667;51.056;3.732;2022-10-31T15:50:17;25.58;;;14.80;;
21018;SDS011;10667;51.056;3.732;2022-10-31T15:55:05;26.75;;;15.68;;
21018;SDS011;10667;51.056;3.732;2022-10-31T15:57:43;26.55;;;17.40;;
21018;SDS011;10667;51.056;3.732;2022-10-31T16:05:47;29.58;;;14.32;;
21018;SDS011;10667;51.056;3.732;2022-10-31T16:08:48;27.88;;;15.05;;
21018;SDS011;10667;51.056;3.732;2022-10-31T16:13:40;22.75;;;14.60;;
21018;SDS011;10667;51.056;3.732;2022-10-31T16:16:17;22.02;;;12.88;;
21018;SDS011;10667;51.056;3.732;2022-10-31T16:18:45;21.00;;;12.15;;
21018;SDS011;10667;51.056;3.732;2022-10-31T16:21:11;26.50;;;13.80;;
21018;SDS011;10667;51.056;3.732;2022-10-31T16:23:38;24.05;;;14.05;;
21018;SDS011;10667;51.056;3.732;2022-10-31T16:26:09;25.98;;;13.70;;
21018;SDS011;10667;51.056;3.732;2022-10-31T16:28:49;25.67;;;13.90;;
21018;SDS011;10667;51.056;3.732;2022-10-31T16:31:24;28.83;;;13.20;;
21018;SDS011;10667;51.056;3.732;2022-10-31T16:34:10;26.48;;;12.68;;
21018;SDS011;10667;51.056;3.732;2022-10-31T16:36:40;25.08;;;14.13;;
21018;SDS011;10667;51.056;3.732;2022-10-31T16:39:06;27.10;;;13.38;;
21018;SDS011;10667;51.056;3.732;2022-10-31T16:41:34;25.73;;;13.30;;
21018;SDS011;10667;51.056;3.732;2022-10-31T16:44:04;32.85;;;13.60;;
21018;SDS011;10667;51.056;3.732;2022-10-31T16:46:39;24.77;;;12.77;;
21018;SDS011;10667;51.056;3.732;2022-10-31T16:49:04;24.65;;;12.63;;
21018;SDS011;10667;51.056;3.732;2022-10-31T16:51:32;25.75;;;12.60;;
21018;SDS011;10667;51.056;3.732;2022-10-31T16:53:58;23.23;;;12.65;;
21018;SDS011;10667;51.056;3.732;2022-10-31T16:56:26;19.75;;;12.50;;
21018;SDS011;10667;51.056;3.732;2022-10-31T16:58:54;15.15;;;11.85;;
21018;SDS011;10667;51.056;3.732;2022-10-31T17:01:21;28.48;;;13.48;;
21018;SDS011;10667;51.056;3.732;2022-10-31T17:03:47;24.90;;;12.73;;
21018;SDS011;10667;51.056;3.732;2022-10-31T17:06:13;27.73;;;12.43;;
21018;SDS011;10667;51.056;3.732;2022-10-31T17:08:39;27.45;;;12.23;;
21018;SDS011;10667;51.056;3.732;2022-10-31T17:11:05;29.13;;;16.05;;
21018;SDS011;10667;51.056;3.732;2022-10-31T17:13:43;20.70;;;12.00;;
21018;SDS011;10667;51.056;3.732;2022-10-31T17:16:09;25.65;;;14.05;;
21018;SDS011;10667;51.056;3.732;2022-10-31T17:18:37;24.08;;;12.85;;
21018;SDS011;10667;51.056;3.732;2022-10-31T17:21:03;30.33;;;14.57;;
21018;SDS011;10667;51.056;3.732;2022-10-31T17:23:30;28.38;;;13.20;;
21018;SDS011;10667;51.056;3.732;2022-10-31T17:25:57;28.95;;;14.35;;
21018;SDS011;10667;51.056;3.732;2022-10-31T17:28:23;29.45;;;14.07;;
21018;SDS011;10667;51.056;3.732;2022-10-31T17:30:53;26.58;;;13.85;;
21018;SDS011;10667;51.056;3.732;2022-10-31T17:33:20;27.55;;;15.60;;
21018;SDS011;10667;51.056;3.732;2022-10-31T17:35:46;24.42;;;13.70;;
21018;SDS011;10667;51.056;3.732;2022-10-31T17:38:11;28.27;;;16.73;;
21018;SDS011;10667;51.056;3.732;2022-10-31T17:40:38;27.25;;;14.52;;
21018;SDS011;10667;51.056;3.732;2022-10-31T17:43:06;27.77;;;14.48;;